Uvalde Research's Hourly Summary for Thursday, July 5, 2018
Hour Temp
(f)
RH
(%)
Solar Rad.
(MJ/m2)
Rainfall
(in)
Wind
(mph)
7/5/2018 12:00 AM 73 96 0 0 2.62
7/5/2018 1:00 AM 73 96 0 0 2.3
7/5/2018 2:00 AM 73 97 0 0 2.26
7/5/2018 3:00 AM 73 95 0 0 2.74
7/5/2018 4:00 AM 73 94 0 0 2.16
7/5/2018 5:00 AM 72 95 0 0 3.26
7/5/2018 6:00 AM 71 97 0 0.03 2.19
7/5/2018 7:00 AM 71 99 0.06 0.04 2.06
7/5/2018 8:00 AM 72 98 0.47 0 2.65
7/5/2018 9:00 AM 73 95 0.52 0 3.55
7/5/2018 10:00 AM 74 93 1.28 0 2.69
7/5/2018 11:00 AM 78 82 1.62 0 3.01
7/5/2018 12:00 PM 80 77 2.19 0 3.52
7/5/2018 1:00 PM 85 63 1.67 0 2.85
7/5/2018 2:00 PM 86 60 2.39 0 3.72
7/5/2018 3:00 PM 86 58 1.18 0 3.25
7/5/2018 4:00 PM 87 55 1.48 0 2.26
7/5/2018 5:00 PM 87 56 0.49 0 2.67
7/5/2018 6:00 PM 87 53 0.94 0 1.87
7/5/2018 7:00 PM 87 53 0.21 0 2.43
7/5/2018 8:00 PM 85 57 0.04 0 1.41
7/5/2018 9:00 PM 83 64 0 0 0.01
7/5/2018 10:00 PM 80 72 0 0 0.33
7/5/2018 11:00 PM 79 74 0 0 0.78
Data Summary 78 78 14.54 0.07 2.36